createdAt,value
2023-04-15T00:00:56.267Z,85.30
2023-04-15T00:03:23.056Z,86.15
2023-04-15T00:05:49.896Z,86.01
2023-04-15T00:08:16.424Z,86.35
2023-04-15T00:10:43.018Z,86.43
2023-04-15T00:13:09.831Z,85.26
2023-04-15T00:15:36.409Z,84.66
2023-04-15T00:18:03.014Z,84.60
2023-04-15T00:20:29.652Z,84.43
2023-04-15T00:22:56.170Z,86.69
2023-04-15T00:25:22.732Z,85.36
2023-04-15T00:27:49.242Z,85.87
2023-04-15T00:30:15.844Z,86.76
2023-04-15T00:32:42.501Z,86.99
2023-04-15T00:35:09.296Z,86.66
2023-04-15T00:37:35.840Z,86.79
2023-04-15T00:40:02.574Z,87.56
2023-04-15T00:42:29.137Z,89.58
2023-04-15T00:44:55.678Z,89.90
2023-04-15T00:47:23.099Z,88.82
2023-04-15T00:49:49.697Z,88.31
2023-04-15T00:52:16.288Z,89.50
2023-04-15T00:54:42.973Z,88.36
2023-04-15T00:57:09.622Z,88.96
2023-04-15T00:59:36.427Z,89.25
2023-04-15T01:02:03.102Z,89.68
2023-04-15T01:04:30.328Z,88.30
2023-04-15T01:06:56.982Z,88.35
2023-04-15T01:09:23.552Z,89.66
2023-04-15T01:11:50.554Z,89.19
2023-04-15T01:14:17.148Z,88.91
2023-04-15T01:16:43.778Z,87.87
2023-04-15T01:19:11.155Z,87.95
2023-04-15T01:21:38.064Z,89.95
2023-04-15T01:24:10.404Z,89.70
2023-04-15T01:26:38.583Z,90.03
2023-04-15T01:29:05.244Z,88.62
2023-04-15T01:31:32.075Z,87.93
2023-04-15T01:34:00.316Z,88.80
2023-04-15T01:36:27.119Z,88.39
2023-04-15T01:38:55.279Z,87.60
2023-04-15T01:41:25.944Z,87.85
2023-04-15T01:43:52.822Z,89.00
2023-04-15T01:46:19.713Z,88.54
2023-04-15T01:48:46.458Z,88.38
2023-04-15T01:51:13.073Z,87.78
2023-04-15T01:53:39.841Z,87.69
2023-04-15T01:56:06.904Z,86.47
2023-04-15T01:58:33.537Z,87.72
2023-04-15T02:01:00.147Z,88.10
2023-04-15T02:03:27.054Z,87.08
2023-04-15T02:05:53.622Z,87.11
2023-04-15T02:08:20.230Z,87.27
2023-04-15T02:10:47.011Z,87.59
2023-04-15T02:13:13.704Z,86.96
2023-04-15T02:15:40.274Z,86.26
2023-04-15T02:18:06.818Z,85.95
2023-04-15T02:20:33.494Z,86.03
2023-04-15T02:23:00.134Z,85.43
2023-04-15T02:25:26.831Z,86.20
2023-04-15T02:27:53.504Z,86.54
2023-04-15T02:30:20.209Z,86.19
2023-04-15T02:32:46.882Z,85.87
2023-04-15T02:35:13.478Z,86.02
2023-04-15T02:37:40.087Z,85.25
2023-04-15T02:40:10.140Z,85.81
2023-04-15T02:42:36.641Z,86.56
2023-04-15T02:45:03.396Z,86.39
2023-04-15T02:47:29.972Z,86.03
2023-04-15T02:49:56.555Z,86.71
2023-04-15T02:52:23.416Z,85.75
2023-04-15T02:54:49.938Z,86.64
2023-04-15T02:57:19.266Z,85.85
2023-04-15T02:59:45.819Z,85.30
2023-04-15T03:02:12.455Z,85.86
2023-04-15T03:04:39.130Z,86.45
2023-04-15T03:07:05.716Z,86.22
2023-04-15T03:09:32.288Z,87.18
2023-04-15T03:11:59.045Z,86.67
2023-04-15T03:14:25.663Z,86.38
2023-04-15T03:16:52.258Z,87.51
2023-04-15T03:19:18.833Z,86.43
2023-04-15T03:21:45.380Z,85.94
2023-04-15T03:24:11.982Z,85.79
2023-04-15T03:26:38.577Z,86.92
2023-04-15T03:29:05.133Z,87.03
2023-04-15T03:31:31.660Z,85.94
2023-04-15T03:33:58.199Z,86.22
2023-04-15T03:36:24.775Z,86.25
2023-04-15T03:38:51.315Z,86.09
2023-04-15T03:41:17.959Z,87.09
2023-04-15T03:43:44.592Z,86.22
2023-04-15T03:46:11.205Z,86.45
2023-04-15T03:48:37.854Z,86.28
2023-04-15T03:51:04.411Z,86.92
2023-04-15T03:53:30.965Z,86.00
2023-04-15T03:55:57.507Z,85.28
2023-04-15T03:58:24.170Z,86.74
2023-04-15T04:00:50.786Z,85.43
2023-04-15T04:03:17.458Z,85.74
2023-04-15T04:05:44.257Z,85.80
2023-04-15T04:08:10.854Z,87.00
2023-04-15T04:10:37.406Z,85.79
2023-04-15T04:13:03.917Z,86.30
2023-04-15T04:15:30.425Z,84.53
2023-04-15T04:17:56.982Z,84.65
2023-04-15T04:20:23.584Z,84.66
2023-04-15T04:22:50.378Z,84.55
2023-04-15T04:25:16.884Z,85.28
2023-04-15T04:27:43.617Z,86.50
2023-04-15T04:30:10.392Z,85.75
2023-04-15T04:32:37.021Z,85.27
2023-04-15T04:35:04.568Z,83.92
2023-04-15T04:37:31.117Z,85.68
2023-04-15T04:39:57.605Z,85.53
2023-04-15T04:42:24.382Z,83.69
2023-04-15T04:44:50.954Z,83.57
2023-04-15T04:47:17.486Z,84.58
2023-04-15T04:49:44.044Z,83.21
2023-04-15T04:52:10.612Z,82.85
2023-04-15T04:54:37.161Z,81.10
2023-04-15T04:57:03.805Z,81.66
2023-04-15T04:59:30.386Z,81.48
2023-04-15T05:01:57.073Z,81.54
2023-04-15T05:04:23.835Z,82.41
2023-04-15T05:06:50.372Z,82.05
2023-04-15T05:09:16.981Z,80.49
2023-04-15T05:11:43.593Z,80.41
2023-04-15T05:14:10.120Z,79.47
2023-04-15T05:16:36.636Z,77.47
2023-04-15T05:19:03.398Z,74.75
2023-04-15T05:21:30.502Z,75.81
2023-04-15T05:23:57.152Z,77.22
2023-04-15T05:26:23.697Z,77.23
2023-04-15T05:28:50.453Z,76.63
2023-04-15T05:31:17.386Z,76.84
2023-04-15T05:33:44.191Z,75.39
2023-04-15T05:36:10.876Z,76.41
2023-04-15T05:38:37.444Z,75.36
2023-04-15T05:41:04.064Z,75.89
2023-04-15T05:43:30.935Z,76.61
2023-04-15T05:45:57.595Z,75.63
2023-04-15T05:48:24.225Z,75.99
2023-04-15T05:50:50.967Z,77.23
2023-04-15T05:53:17.567Z,77.89
2023-04-15T05:55:44.191Z,77.76
2023-04-15T05:58:10.859Z,77.73
2023-04-15T06:00:37.454Z,78.46
2023-04-15T06:03:04.387Z,78.88
2023-04-15T06:05:30.953Z,76.71
2023-04-15T06:07:57.658Z,72.71
2023-04-15T06:10:24.214Z,71.50
2023-04-15T06:12:53.316Z,68.82
2023-04-15T06:15:19.958Z,67.25
2023-04-15T06:17:46.586Z,66.14
2023-04-15T06:20:13.334Z,66.09
2023-04-15T06:22:40.006Z,67.98
2023-04-15T06:25:07.490Z,66.87
2023-04-15T06:27:34.046Z,66.81
2023-04-15T06:30:00.597Z,68.94
2023-04-15T06:32:27.408Z,68.72
2023-04-15T06:34:53.952Z,69.62
2023-04-15T06:37:20.702Z,68.04
2023-04-15T06:39:47.209Z,68.63
2023-04-15T06:42:14.041Z,68.56
2023-04-15T06:44:40.745Z,66.37
2023-04-15T06:47:07.357Z,64.57
2023-04-15T06:49:33.987Z,61.63
2023-04-15T06:52:00.864Z,61.24
2023-04-15T06:54:27.563Z,59.87
2023-04-15T06:56:54.164Z,56.66
2023-04-15T06:59:20.825Z,57.66
2023-04-15T07:01:47.612Z,56.93
2023-04-15T07:04:14.174Z,55.75
2023-04-15T07:06:40.737Z,55.87
2023-04-15T07:09:07.254Z,55.60
2023-04-15T07:11:33.931Z,54.42
2023-04-15T07:14:00.473Z,54.91
2023-04-15T07:16:29.955Z,55.83
2023-04-15T07:18:56.749Z,56.35
2023-04-15T07:21:24.699Z,56.38
2023-04-15T07:23:51.389Z,55.61
2023-04-15T07:26:17.925Z,54.22
2023-04-15T07:28:44.505Z,52.80
2023-04-15T07:31:11.141Z,55.89
2023-04-15T07:33:37.792Z,55.49
2023-04-15T07:36:04.541Z,54.77
2023-04-15T07:38:32.266Z,53.96
2023-04-15T07:40:59.307Z,53.29
2023-04-15T07:43:25.975Z,52.28
2023-04-15T07:45:52.499Z,53.57
2023-04-15T07:48:19.252Z,52.66
2023-04-15T07:50:45.911Z,52.13
2023-04-15T07:53:12.578Z,50.98
2023-04-15T07:55:39.192Z,51.53
2023-04-15T07:58:05.753Z,51.68
2023-04-15T08:00:32.431Z,51.65
2023-04-15T08:02:59.064Z,51.43
2023-04-15T08:05:25.770Z,51.74
2023-04-15T08:07:52.370Z,52.78
2023-04-15T08:10:18.989Z,51.02
2023-04-15T08:12:45.697Z,50.47
2023-04-15T08:15:12.245Z,54.10
2023-04-15T08:17:38.852Z,56.04
2023-04-15T08:20:05.975Z,54.92
2023-04-15T08:22:32.693Z,53.89
2023-04-15T08:24:59.239Z,53.13
2023-04-15T08:27:25.843Z,52.32
2023-04-15T08:29:52.442Z,52.00
2023-04-15T08:32:19.211Z,51.80
2023-04-15T08:34:45.811Z,52.40
2023-04-15T08:37:15.386Z,50.68
2023-04-15T08:39:41.975Z,51.43
2023-04-15T08:42:16.314Z,50.65
2023-04-15T08:44:43.640Z,49.79
2023-04-15T08:47:13.842Z,49.40
2023-04-15T08:49:41.186Z,47.67
2023-04-15T08:52:08.780Z,45.28
2023-04-15T08:54:35.814Z,47.42
2023-04-15T08:57:03.061Z,46.65
2023-04-15T08:59:32.819Z,45.37
2023-04-15T09:01:59.564Z,45.51
2023-04-15T09:04:26.227Z,44.66
2023-04-15T09:06:52.829Z,45.78
2023-04-15T09:09:19.453Z,47.48
2023-04-15T09:11:46.072Z,46.62
2023-04-15T09:14:12.594Z,47.20
2023-04-15T09:16:59.619Z,46.50
2023-04-15T09:19:26.824Z,46.48
2023-04-15T09:21:57.979Z,48.48
2023-04-15T09:24:26.309Z,49.35
2023-04-15T09:26:54.585Z,50.02
2023-04-15T09:29:24.316Z,49.75
2023-04-15T09:31:51.063Z,50.56
2023-04-15T09:34:17.638Z,50.15
2023-04-15T09:36:49.163Z,51.31
2023-04-15T09:39:17.104Z,49.43
2023-04-15T09:41:43.724Z,49.38
2023-04-15T09:44:23.839Z,50.03
2023-04-15T09:46:50.402Z,46.62
2023-04-15T09:49:17.042Z,46.56
2023-04-15T09:51:51.312Z,45.14
2023-04-15T09:54:24.466Z,42.30
2023-04-15T09:56:51.036Z,43.17
2023-04-15T09:59:18.717Z,39.65
2023-04-15T10:01:47.113Z,40.91
2023-04-15T10:04:14.280Z,38.92
2023-04-15T10:06:41.398Z,38.92
2023-04-15T10:09:08.743Z,37.69
2023-04-15T10:11:35.546Z,39.14
2023-04-15T10:14:03.006Z,36.89
2023-04-15T10:16:33.087Z,34.95
2023-04-15T10:19:02.438Z,35.18
2023-04-15T10:21:30.525Z,36.90
2023-04-15T10:23:58.231Z,37.80
2023-04-15T10:26:25.271Z,38.97
2023-04-15T10:28:53.335Z,38.14
2023-04-15T10:31:20.451Z,36.35
2023-04-15T10:33:48.436Z,39.17
2023-04-15T10:36:16.064Z,40.58
2023-04-15T10:38:46.026Z,41.48
2023-04-15T10:41:21.110Z,42.00
2023-04-15T10:43:54.063Z,41.18
2023-04-15T10:46:38.742Z,41.28
2023-04-15T10:49:16.867Z,41.53
2023-04-15T10:51:51.425Z,40.68
2023-04-15T10:54:17.929Z,39.82
2023-04-15T10:56:52.254Z,40.74
2023-04-15T10:59:20.350Z,41.22
2023-04-15T11:01:52.667Z,40.93
2023-04-15T11:04:51.621Z,42.83
2023-04-15T11:07:37.161Z,41.42
2023-04-15T11:10:24.793Z,40.82
2023-04-15T11:13:11.486Z,42.11
2023-04-15T11:15:45.266Z,41.64
2023-04-15T11:18:17.249Z,40.25
2023-04-15T11:20:48.324Z,41.10
2023-04-15T11:23:15.836Z,42.64
2023-04-15T11:25:43.282Z,44.07
2023-04-15T11:28:11.766Z,44.58
2023-04-15T11:30:39.334Z,44.39
2023-04-15T11:33:11.810Z,43.19
2023-04-15T11:35:38.595Z,43.85
2023-04-15T11:38:08.353Z,40.01
2023-04-15T11:40:35.697Z,41.01
2023-04-15T11:43:13.417Z,42.21
2023-04-15T11:45:58.055Z,43.05
2023-04-15T11:48:35.928Z,41.67
2023-04-15T11:51:05.231Z,41.32
2023-04-15T11:53:48.737Z,40.94
2023-04-15T11:56:24.135Z,41.06
2023-04-15T11:58:56.141Z,41.67
2023-04-15T12:01:32.019Z,43.13
2023-04-15T12:03:58.768Z,44.00
2023-04-15T12:06:25.826Z,44.31
2023-04-15T12:08:59.357Z,44.12
2023-04-15T12:11:30.176Z,45.67
2023-04-15T12:13:59.991Z,44.64
2023-04-15T12:16:28.225Z,45.00
2023-04-15T12:18:56.864Z,45.25
2023-04-15T12:21:25.036Z,44.68
2023-04-15T12:23:56.393Z,45.50
2023-04-15T12:26:28.087Z,45.55
2023-04-15T12:29:05.358Z,45.58
2023-04-15T12:31:31.938Z,46.13
2023-04-15T12:33:59.440Z,45.91
2023-04-15T12:36:26.372Z,47.08
2023-04-15T12:38:52.942Z,45.88
2023-04-15T12:41:21.199Z,45.41
2023-04-15T12:43:47.809Z,45.04
2023-04-15T12:46:14.424Z,44.82
2023-04-15T12:48:41.179Z,46.28
2023-04-15T12:51:07.723Z,48.54
2023-04-15T12:53:34.335Z,53.97
2023-04-15T12:56:00.941Z,53.32
2023-04-15T12:58:27.636Z,48.96
2023-04-15T13:00:54.270Z,50.87
2023-04-15T13:03:20.869Z,49.48
2023-04-15T13:05:47.510Z,50.27
2023-04-15T13:08:14.205Z,50.39
2023-04-15T13:10:40.769Z,51.88
2023-04-15T13:13:07.421Z,51.32
2023-04-15T13:15:34.139Z,48.97
2023-04-15T13:18:01.289Z,50.48
2023-04-15T13:20:28.370Z,50.28
2023-04-15T13:22:54.984Z,48.98
2023-04-15T13:25:21.569Z,48.40
2023-04-15T13:27:48.055Z,48.30
2023-04-15T13:30:14.595Z,48.00
2023-04-15T13:32:41.128Z,48.70
2023-04-15T13:35:08.090Z,52.70
2023-04-15T13:37:34.672Z,62.09
2023-04-15T13:40:01.279Z,64.63
2023-04-15T13:42:27.812Z,65.73
2023-04-15T13:44:54.353Z,65.67
2023-04-15T13:47:21.038Z,67.69
2023-04-15T13:49:47.887Z,68.56
2023-04-15T13:52:14.642Z,69.71
2023-04-15T13:54:41.125Z,71.04
2023-04-15T13:57:08.110Z,72.08
2023-04-15T13:59:34.873Z,72.35
2023-04-15T14:02:01.742Z,72.31
2023-04-15T14:04:28.629Z,72.10
2023-04-15T14:06:56.220Z,70.69
2023-04-15T14:09:25.002Z,70.42
2023-04-15T14:11:53.167Z,70.27
2023-04-15T14:14:19.826Z,68.81
2023-04-15T14:16:46.526Z,68.43
2023-04-15T14:19:13.109Z,70.10
2023-04-15T14:21:39.630Z,69.22
2023-04-15T14:24:06.273Z,68.99
2023-04-15T14:26:32.967Z,69.30
2023-04-15T14:28:59.855Z,71.17
2023-04-15T14:31:26.629Z,69.84
2023-04-15T14:33:53.301Z,72.92
2023-04-15T14:36:19.848Z,73.55
2023-04-15T14:38:48.405Z,73.30
2023-04-15T14:41:15.313Z,73.09
2023-04-15T14:43:41.865Z,71.39
2023-04-15T14:46:08.513Z,71.51
2023-04-15T14:48:35.443Z,70.65
2023-04-15T14:51:02.055Z,71.03
2023-04-15T14:53:28.794Z,69.99
2023-04-15T14:55:55.374Z,70.60
2023-04-15T14:58:22.136Z,69.03
2023-04-15T15:00:48.702Z,69.88
2023-04-15T15:03:15.366Z,69.29
2023-04-15T15:05:44.149Z,67.89
2023-04-15T15:08:11.167Z,66.88
2023-04-15T15:10:49.417Z,67.57
2023-04-15T15:13:17.221Z,67.32
2023-04-15T15:15:44.022Z,65.79
2023-04-15T15:18:10.975Z,64.82
2023-04-15T15:20:37.529Z,64.94
2023-04-15T15:23:04.150Z,65.72
2023-04-15T15:25:30.675Z,65.02
2023-04-15T15:27:57.749Z,64.48
2023-04-15T15:30:24.318Z,66.23
2023-04-15T15:32:51.586Z,64.00
2023-04-15T15:35:18.325Z,63.24
2023-04-15T15:37:45.907Z,64.34
2023-04-15T15:40:12.883Z,63.00
2023-04-15T15:42:39.478Z,62.96
2023-04-15T15:45:06.507Z,62.38
2023-04-15T15:47:33.254Z,62.34
2023-04-15T15:50:01.093Z,62.77
2023-04-15T15:52:27.718Z,62.06
2023-04-15T15:54:54.281Z,62.41
2023-04-15T15:57:20.817Z,63.05
2023-04-15T15:59:47.446Z,63.54
2023-04-15T16:02:14.980Z,61.73
2023-04-15T16:04:41.649Z,63.48
2023-04-15T16:07:08.358Z,62.86
2023-04-15T16:09:34.915Z,64.19
2023-04-15T16:12:01.563Z,64.33
2023-04-15T16:14:28.141Z,65.06
2023-04-15T16:16:54.682Z,65.36
2023-04-15T16:19:21.534Z,64.40
2023-04-15T16:21:48.641Z,64.38
2023-04-15T16:24:15.188Z,64.28
2023-04-15T16:26:42.028Z,63.94
2023-04-15T16:29:08.777Z,64.89
2023-04-15T16:31:35.710Z,64.56
2023-04-15T16:34:02.932Z,65.39
2023-04-15T16:36:29.654Z,65.65
2023-04-15T16:38:56.186Z,66.93
2023-04-15T16:41:22.713Z,67.18
2023-04-15T16:43:49.642Z,67.79
2023-04-15T16:46:16.201Z,67.56
2023-04-15T16:48:42.778Z,68.64
2023-04-15T16:51:09.512Z,67.45
2023-04-15T16:53:36.157Z,68.68
2023-04-15T16:56:02.706Z,68.42
2023-04-15T16:58:29.325Z,68.17
2023-04-15T17:00:55.968Z,69.22
2023-04-15T17:03:22.782Z,68.17
2023-04-15T17:05:49.579Z,68.51
2023-04-15T17:08:16.152Z,68.46
2023-04-15T17:10:42.745Z,70.22
2023-04-15T17:13:09.436Z,70.23
2023-04-15T17:15:36.002Z,69.95
2023-04-15T17:18:02.838Z,70.27
2023-04-15T17:20:30.237Z,70.31
2023-04-15T17:22:56.930Z,71.84
2023-04-15T17:25:23.614Z,70.76
2023-04-15T17:27:50.263Z,71.79
2023-04-15T17:30:16.782Z,71.96
2023-04-15T17:32:43.480Z,72.05
2023-04-15T17:35:10.256Z,72.50
2023-04-15T17:37:37.431Z,72.75
2023-04-15T17:40:05.839Z,72.69
2023-04-15T17:42:33.897Z,72.83
2023-04-15T17:45:00.437Z,72.87
2023-04-15T17:47:27.814Z,73.65
2023-04-15T17:49:54.434Z,74.49
2023-04-15T17:52:21.182Z,74.60
2023-04-15T17:54:47.698Z,74.79
2023-04-15T17:57:14.510Z,75.03
2023-04-15T17:59:41.109Z,74.39
2023-04-15T18:02:07.682Z,74.48
2023-04-15T18:04:34.408Z,74.93
2023-04-15T18:07:01.359Z,75.26
2023-04-15T18:09:27.893Z,74.91
2023-04-15T18:11:54.489Z,74.51
2023-04-15T18:14:33.408Z,74.41
2023-04-15T18:17:01.868Z,73.97
2023-04-15T18:19:29.373Z,74.52
2023-04-15T18:21:55.957Z,75.12
2023-04-15T18:24:22.802Z,75.69
2023-04-15T18:26:49.514Z,75.11
2023-04-15T18:29:16.391Z,76.02
2023-04-15T18:31:43.105Z,76.69
2023-04-15T18:34:09.721Z,76.24
2023-04-15T18:36:36.343Z,75.21
2023-04-15T18:39:03.050Z,74.91
2023-04-15T18:41:29.755Z,75.41
2023-04-15T18:43:56.337Z,75.43
2023-04-15T18:46:22.965Z,74.79
2023-04-15T18:48:49.590Z,75.78
2023-04-15T18:51:16.169Z,76.87
2023-04-15T18:53:42.760Z,76.01
2023-04-15T18:56:09.777Z,75.45
2023-04-15T18:59:25.980Z,74.87
2023-04-15T19:01:25.858Z,75.54
2023-04-15T19:03:52.468Z,75.38
2023-04-15T19:06:19.140Z,75.62
2023-04-15T19:08:45.752Z,74.62
2023-04-15T19:11:12.268Z,74.66
2023-04-15T19:13:38.851Z,74.44
2023-04-15T19:16:05.562Z,74.84
2023-04-15T19:18:32.356Z,74.05
2023-04-15T19:20:59.175Z,74.51
2023-04-15T19:23:25.829Z,74.48
2023-04-15T19:25:52.524Z,74.93
2023-04-15T19:28:19.239Z,74.91
2023-04-15T19:30:45.915Z,74.82
2023-04-15T19:33:12.486Z,74.07
2023-04-15T19:35:40.698Z,74.91
2023-04-15T19:38:07.261Z,75.05
2023-04-15T19:40:33.846Z,75.07
2023-04-15T19:43:00.399Z,74.62
2023-04-15T19:45:27.017Z,74.53
2023-04-15T19:47:53.918Z,74.00
2023-04-15T19:50:20.488Z,74.47
2023-04-15T19:52:47.066Z,73.93
2023-04-15T19:55:13.582Z,74.01
2023-04-15T19:57:40.108Z,74.14
2023-04-15T20:00:07.394Z,74.40
2023-04-15T20:02:34.091Z,73.88
2023-04-15T20:05:00.916Z,74.13
2023-04-15T20:07:27.689Z,73.80
2023-04-15T20:09:54.407Z,73.68
2023-04-15T20:12:50.207Z,73.40
2023-04-15T20:15:08.536Z,74.03
2023-04-15T20:17:36.634Z,75.02
2023-04-15T20:20:07.004Z,75.50
2023-04-15T20:22:34.125Z,76.08
2023-04-15T20:25:01.979Z,74.78
2023-04-15T20:27:28.978Z,74.58
2023-04-15T20:29:55.512Z,75.06
2023-04-15T20:32:22.133Z,74.79
2023-04-15T20:34:48.677Z,75.21
2023-04-15T20:37:15.256Z,75.77
2023-04-15T20:39:42.079Z,76.09
2023-04-15T20:42:08.667Z,75.24
2023-04-15T20:44:35.233Z,76.26
2023-04-15T20:47:01.804Z,75.67
2023-04-15T20:49:28.380Z,76.18
2023-04-15T20:51:54.853Z,75.91
2023-04-15T20:54:21.386Z,76.45
2023-04-15T20:56:47.910Z,75.25
2023-04-15T20:59:14.481Z,75.77
2023-04-15T21:01:41.137Z,76.44
2023-04-15T21:04:07.760Z,76.83
2023-04-15T21:06:35.126Z,76.67
2023-04-15T21:09:01.869Z,75.28
2023-04-15T21:11:46.461Z,76.94
2023-04-15T21:14:15.986Z,76.32
2023-04-15T21:16:43.051Z,76.24
2023-04-15T21:19:10.239Z,76.42
2023-04-15T21:21:36.933Z,76.27
2023-04-15T21:24:03.652Z,77.81
2023-04-15T21:26:30.269Z,77.12
2023-04-15T21:28:56.816Z,75.89
2023-04-15T21:31:23.437Z,75.65
2023-04-15T21:33:50.044Z,76.44
2023-04-15T21:36:16.697Z,75.38
2023-04-15T21:38:43.286Z,76.03
2023-04-15T21:41:09.838Z,76.40
2023-04-15T21:43:39.285Z,75.74
2023-04-15T21:46:21.821Z,74.87
2023-04-15T21:48:52.846Z,75.31
2023-04-15T21:51:19.419Z,76.06
2023-04-15T21:53:46.034Z,74.98
2023-04-15T21:56:12.643Z,75.78
2023-04-15T21:58:39.207Z,76.17
2023-04-15T22:01:05.994Z,77.10
2023-04-15T22:03:34.538Z,76.64
2023-04-15T22:06:04.828Z,75.36
2023-04-15T22:08:38.229Z,77.03
2023-04-15T22:11:09.128Z,75.93
2023-04-15T22:13:35.912Z,75.74
2023-04-15T22:16:02.912Z,76.37
2023-04-15T22:18:29.455Z,76.43
2023-04-15T22:20:56.040Z,76.39
2023-04-15T22:23:22.655Z,76.26
2023-04-15T22:25:49.311Z,76.52
2023-04-15T22:28:15.843Z,76.56
2023-04-15T22:30:43.329Z,76.65
2023-04-15T22:33:09.993Z,77.13
2023-04-15T22:35:36.689Z,77.20
2023-04-15T22:38:04.476Z,77.03
2023-04-15T22:40:31.253Z,76.35
2023-04-15T22:42:57.804Z,76.49
2023-04-15T22:45:24.382Z,77.47
2023-04-15T22:47:51.027Z,76.98
2023-04-15T22:50:17.889Z,77.71
2023-04-15T22:52:44.506Z,77.88
2023-04-15T22:55:11.007Z,77.64
2023-04-15T22:57:37.710Z,77.00
2023-04-15T23:00:04.736Z,77.12
2023-04-15T23:02:31.529Z,77.75
2023-04-15T23:04:58.246Z,77.30
2023-04-15T23:07:24.931Z,76.40
2023-04-15T23:09:51.553Z,76.90
2023-04-15T23:12:18.410Z,77.70
2023-04-15T23:14:44.935Z,78.10
2023-04-15T23:17:11.484Z,77.07
2023-04-15T23:19:38.238Z,78.17
2023-04-15T23:22:04.850Z,78.56
2023-04-15T23:24:31.372Z,78.27
2023-04-15T23:26:57.940Z,77.97
2023-04-15T23:29:24.792Z,77.69
2023-04-15T23:31:51.436Z,79.07
2023-04-15T23:34:18.085Z,78.47
2023-04-15T23:36:44.711Z,78.47
2023-04-15T23:39:11.403Z,77.24
2023-04-15T23:41:38.183Z,77.21
2023-04-15T23:44:04.912Z,77.60
2023-04-15T23:46:31.460Z,78.42
2023-04-15T23:48:58.072Z,78.33
2023-04-15T23:51:24.624Z,77.97
2023-04-15T23:53:51.382Z,78.07
2023-04-15T23:56:18.045Z,77.86
2023-04-15T23:58:44.740Z,78.45
